ADDS TAF Board (Experimental) INFO

IDs: Format: Expanded Condensed

Updated at: 0759 UTC 22 Oct 2014

KDCA - Washington/National, VA, US

Issued at 0538 UTC 22 Oct 2014
Time0752Z22/08Z22/09Z22/10Z22/11Z22/12Z22/13Z22/14Z22/15Z22/16Z22/17Z22/18Z22/19Z22/20Z
TypeOBSPRVLPRVLPRVLPRVLPRVLPRVLPRVLPRVLPRVLPRVLPRVLPRVLPRVL
VIS5666666666>6>6>6>6
CIG7025251515151515151525252525
CoverOVCOVCOVCOVCOVCOVCOVCOVCOVCOVCOVCOVCOVCOVC
FltCatMVFRMVFRMVFRMVFRMVFRMVFRMVFRMVFRMVFRMVFRMVFRMVFRMVFRMVFR
WX-RA-RA-RA-RA-RA-RA-RA-RA-RA-RA--------
WDir330330330340340340340340340340350350350350
WSpd11991313131313131316161616
WGst--------------------26262626
R01/19
XWnd54433333331111
XGst--------------------2222
HWnd10881313131313131316161616
HGst--------------------26262626
R04/22
XWnd97799999999999
XGst--------------------15151515
HWnd655999999913131313
HGst--------------------21212121
R15/33
XWnd11144444447777
XGst--------------------12121212
HWnd-11-9-9-12-12-12-12-12-12-12-14-14-14-14
HGst---------------------23-23-23-23
Raw TAF
KDCA 220538Z 2206/2306 33007KT P6SM VCSH OVC060
  FM220800 33009KT 6SM -RA OVC025
  FM221000 34013KT 6SM -RA SCT008 OVC015
  FM221700 35016G26KT P6SM OVC025
  FM230100 33018KT P6SM BKN040


Raw METAR
KDCA 220752Z 33011KT 5SM -RA FEW029 OVC070 13/10 A2987 RMK AO2 SLP114 P0004 T01280100
KDCA 220652Z 33012KT 10SM -RA FEW049 OVC070 13/09 A2987 RMK AO2 RAE0556B42 SLP115 P0000 T01280094

TAF Board Legend

Hazard VFR MVFR IFR LIFR
Visibility (sm) >5 3≤X≤5 1≤X<3 <1
Ceiling (100 ft) >30 10≤X≤30 5≤X<10 <5
Wind Speed (kt) <10 10≤X<20 20≤X<30 ≥30
Wind Gust (kt) <15 15≤X<25 25≤X<35 ≥35
Weather No Wx Reported VCTS,-TS,-FZRA TS,FZRA +TS,+FZRA


Page loaded:  07:59 UTC  |   12:59 AM Pacific  |   01:59 AM Mountain  |   02:59 AM Central  |   03:59 AM Eastern

 

ADVISORIES

FORECASTS

FORECASTS

OBSERVATIONS

USER TOOLS

ABOUT US